createdAt,value
2018-07-23T00:01:41.126Z,82.60
2018-07-23T00:04:10.635Z,82.60
2018-07-23T00:06:40.055Z,82.60
2018-07-23T00:09:09.440Z,82.60
2018-07-23T00:11:39.276Z,82.60
2018-07-23T00:14:08.669Z,82.70
2018-07-23T00:16:38.078Z,82.70
2018-07-23T00:19:07.488Z,82.80
2018-07-23T00:21:36.877Z,82.70
2018-07-23T00:24:07.468Z,82.80
2018-07-23T00:29:06.202Z,82.80
2018-07-23T00:31:35.604Z,82.80
2018-07-23T00:34:05.021Z,82.80
2018-07-23T00:36:34.459Z,82.80
2018-07-23T00:39:06.061Z,82.80
2018-07-23T00:41:35.466Z,82.90
2018-07-23T00:44:05.331Z,82.90
2018-07-23T00:46:34.767Z,82.90
2018-07-23T00:49:04.147Z,82.90
2018-07-23T00:54:02.565Z,82.90
2018-07-23T00:56:32.008Z,82.90
2018-07-23T00:59:01.377Z,82.90
2018-07-23T01:01:30.820Z,82.90
2018-07-23T01:04:00.147Z,82.80
2018-07-23T01:06:29.987Z,82.80
2018-07-23T01:08:59.493Z,82.80
2018-07-23T01:11:28.834Z,82.80
2018-07-23T01:13:58.903Z,82.80
2018-07-23T01:16:28.263Z,82.80
2018-07-23T01:18:57.679Z,82.80
2018-07-23T01:21:27.105Z,82.80
2018-07-23T01:23:56.469Z,82.80
2018-07-23T01:26:25.870Z,82.80
2018-07-23T01:28:55.278Z,82.80
2018-07-23T01:31:24.648Z,82.80
2018-07-23T01:33:54.027Z,82.80
2018-07-23T01:36:23.489Z,82.70
2018-07-23T01:38:52.910Z,82.70
2018-07-23T01:41:22.956Z,82.70
2018-07-23T01:43:52.298Z,82.80
2018-07-23T01:46:21.649Z,82.80
2018-07-23T01:48:50.996Z,82.80
2018-07-23T01:51:20.399Z,82.80
2018-07-23T01:53:49.742Z,82.90
2018-07-23T01:56:19.258Z,82.70
2018-07-23T01:58:48.617Z,82.70
2018-07-23T02:01:18.126Z,82.70
2018-07-23T02:03:47.458Z,82.80
2018-07-23T02:06:16.820Z,82.80
2018-07-23T02:08:46.154Z,82.80
2018-07-23T02:11:15.670Z,82.80
2018-07-23T02:13:45.143Z,82.80
2018-07-23T02:16:14.649Z,82.80
2018-07-23T02:18:43.989Z,82.70
2018-07-23T02:21:13.940Z,82.70
2018-07-23T02:23:43.403Z,82.70
2018-07-23T02:26:12.880Z,82.70
2018-07-23T02:28:42.254Z,82.70
2018-07-23T02:31:11.681Z,82.70
2018-07-23T02:33:41.031Z,82.70
2018-07-23T02:36:10.423Z,82.80
2018-07-23T02:38:39.806Z,82.80
2018-07-23T02:41:09.521Z,82.70
2018-07-23T02:43:38.884Z,82.70
2018-07-23T02:46:08.310Z,82.70
2018-07-23T02:48:37.740Z,82.70
2018-07-23T02:51:07.166Z,82.60
2018-07-23T02:53:37.201Z,82.60
2018-07-23T02:56:06.910Z,82.60
2018-07-23T02:58:36.380Z,82.70
2018-07-23T03:01:06.592Z,82.70
2018-07-23T03:03:36.250Z,82.70
2018-07-23T03:06:05.688Z,82.60
2018-07-23T03:11:04.140Z,82.50
2018-07-23T03:13:34.155Z,82.60
2018-07-23T03:16:03.457Z,82.60
2018-07-23T03:18:32.801Z,82.50
2018-07-23T03:21:02.291Z,82.50
2018-07-23T03:23:31.717Z,82.50
2018-07-23T03:26:01.051Z,82.50
2018-07-23T03:28:30.454Z,82.50
2018-07-23T03:30:59.826Z,82.50
2018-07-23T03:33:29.226Z,82.50
2018-07-23T03:35:58.637Z,83.20
2018-07-23T03:38:28.103Z,82.60
2018-07-23T03:40:57.451Z,82.50
2018-07-23T03:43:26.787Z,82.40
2018-07-23T03:45:56.221Z,82.50
2018-07-23T03:48:25.637Z,82.40
2018-07-23T03:53:24.098Z,82.50
2018-07-23T03:55:53.626Z,82.50
2018-07-23T03:58:23.001Z,82.50
2018-07-23T04:00:52.389Z,82.50
2018-07-23T04:03:21.738Z,82.60
2018-07-23T04:05:51.692Z,82.50
2018-07-23T04:08:21.112Z,82.50
2018-07-23T04:10:51.124Z,82.60
2018-07-23T04:13:20.457Z,82.60
2018-07-23T04:15:49.853Z,82.60
2018-07-23T04:18:19.272Z,82.70
2018-07-23T04:20:48.811Z,82.70
2018-07-23T04:23:18.201Z,82.80
2018-07-23T04:25:47.577Z,82.80
2018-07-23T04:28:16.912Z,82.80
2018-07-23T04:30:46.330Z,82.80
2018-07-23T04:33:15.685Z,82.90
2018-07-23T04:35:45.811Z,82.80
2018-07-23T04:38:15.181Z,82.80
2018-07-23T04:40:45.469Z,82.80
2018-07-23T04:43:14.829Z,82.80
2018-07-23T04:45:44.151Z,82.70
2018-07-23T04:48:13.517Z,82.70
2018-07-23T04:50:42.852Z,82.80
2018-07-23T04:55:42.199Z,82.70
2018-07-23T04:58:11.572Z,82.80
2018-07-23T05:00:41.372Z,82.80
2018-07-23T05:03:10.791Z,82.70
2018-07-23T05:08:09.323Z,82.80
2018-07-23T05:10:39.494Z,82.70
2018-07-23T05:13:09.493Z,82.70
2018-07-23T05:15:38.969Z,82.70
2018-07-23T05:18:08.404Z,82.70
2018-07-23T05:20:40.332Z,82.70
2018-07-23T05:23:10.228Z,82.50
2018-07-23T05:25:39.768Z,82.50
2018-07-23T05:28:10.064Z,82.60
2018-07-23T05:30:39.482Z,82.50
2018-07-23T05:33:09.620Z,82.50
2018-07-23T05:35:39.061Z,82.50
2018-07-23T05:38:08.867Z,82.50
2018-07-23T05:40:38.298Z,82.40
2018-07-23T05:43:08.110Z,82.50
2018-07-23T05:45:38.304Z,82.40
2018-07-23T05:48:07.967Z,82.50
2018-07-23T05:50:37.462Z,82.50
2018-07-23T05:53:06.974Z,82.40
2018-07-23T05:55:36.402Z,82.50
2018-07-23T05:58:05.886Z,82.30
2018-07-23T06:00:35.324Z,82.40
2018-07-23T06:03:06.618Z,82.30
2018-07-23T06:05:36.037Z,82.30
2018-07-23T06:08:05.874Z,82.30
2018-07-23T06:10:35.758Z,82.40
2018-07-23T06:13:05.287Z,82.30
2018-07-23T06:15:35.960Z,82.30
2018-07-23T06:18:05.581Z,82.20
2018-07-23T06:20:36.186Z,82.20
2018-07-23T06:23:05.667Z,82.10
2018-07-23T06:25:35.065Z,82.00
2018-07-23T06:28:04.679Z,82.00
2018-07-23T06:30:34.105Z,81.80
2018-07-23T06:35:32.689Z,81.70
2018-07-23T06:38:02.097Z,81.70
2018-07-23T06:40:31.604Z,82.60
2018-07-23T06:43:01.026Z,81.60
2018-07-23T06:45:30.780Z,81.60
2018-07-23T06:48:00.321Z,81.30
2018-07-23T06:50:29.835Z,81.20
2018-07-23T06:52:59.535Z,81.00
2018-07-23T06:55:29.055Z,80.80
2018-07-23T06:57:59.619Z,80.80
2018-07-23T07:00:29.082Z,80.60
2018-07-23T07:02:58.545Z,80.60
2018-07-23T07:05:28.092Z,80.50
2018-07-23T07:07:59.958Z,80.50
2018-07-23T07:10:29.535Z,80.20
2018-07-23T07:13:00.276Z,80.20
2018-07-23T07:15:30.495Z,80.10
2018-07-23T07:17:59.886Z,80.70
2018-07-23T07:20:29.318Z,79.70
2018-07-23T07:22:59.372Z,79.60
2018-07-23T07:25:29.508Z,79.50
2018-07-23T07:27:58.940Z,79.40
2018-07-23T07:30:28.462Z,79.40
2018-07-23T07:32:58.003Z,79.40
2018-07-23T07:35:27.503Z,79.40
2018-07-23T07:37:56.988Z,79.40
2018-07-23T07:40:27.021Z,79.40
2018-07-23T07:42:56.882Z,79.20
2018-07-23T07:45:26.985Z,79.10
2018-07-23T07:47:56.505Z,78.90
2018-07-23T07:50:26.938Z,78.70
2018-07-23T07:52:56.791Z,78.40
2018-07-23T07:55:26.510Z,78.20
2018-07-23T07:57:56.627Z,77.80
2018-07-23T08:00:26.194Z,77.50
2018-07-23T08:02:55.632Z,77.20
2018-07-23T08:07:55.636Z,77.10
2018-07-23T08:10:25.144Z,77.00
2018-07-23T08:12:54.604Z,76.90
2018-07-23T08:15:24.850Z,76.80
2018-07-23T08:17:54.742Z,76.60
2018-07-23T08:20:25.057Z,76.30
2018-07-23T08:22:54.432Z,76.00
2018-07-23T08:25:24.479Z,76.70
2018-07-23T08:27:53.921Z,75.60
2018-07-23T08:30:23.445Z,75.40
2018-07-23T08:35:22.687Z,75.50
2018-07-23T08:37:52.084Z,74.80
2018-07-23T08:40:21.579Z,74.70
2018-07-23T08:42:51.881Z,74.50
2018-07-23T08:45:22.303Z,74.40
2018-07-23T08:47:51.877Z,74.30
2018-07-23T08:50:21.337Z,74.10
2018-07-23T08:52:50.727Z,74.00
2018-07-23T08:55:20.171Z,73.90
2018-07-23T08:57:49.640Z,73.90
2018-07-23T09:00:19.276Z,73.80
2018-07-23T09:02:49.390Z,73.80
2018-07-23T09:05:18.851Z,73.70
2018-07-23T09:07:48.251Z,73.80
2018-07-23T09:10:18.331Z,73.50
2018-07-23T09:12:47.766Z,73.50
2018-07-23T09:15:18.932Z,73.40
2018-07-23T09:17:48.386Z,73.10
2018-07-23T09:20:17.892Z,72.90
2018-07-23T09:22:48.170Z,72.70
2018-07-23T09:25:17.616Z,72.50
2018-07-23T09:27:47.031Z,72.50
2018-07-23T09:30:54.117Z,72.50
2018-07-23T09:33:24.604Z,72.40
2018-07-23T09:35:54.528Z,72.60
2018-07-23T09:38:24.852Z,72.50
2018-07-23T09:40:54.342Z,72.60
2018-07-23T09:43:23.872Z,72.70
2018-07-23T09:45:53.302Z,72.70
2018-07-23T09:48:22.782Z,72.90
2018-07-23T09:50:52.206Z,72.90
2018-07-23T09:53:22.252Z,73.10
2018-07-23T09:55:52.055Z,73.00
2018-07-23T09:58:21.487Z,73.30
2018-07-23T10:00:55.627Z,73.60
2018-07-23T10:03:25.615Z,73.70
2018-07-23T10:08:24.228Z,73.80
2018-07-23T10:10:53.851Z,73.80
2018-07-23T10:13:24.378Z,73.90
2018-07-23T10:15:53.834Z,73.70
2018-07-23T10:18:23.313Z,73.80
2018-07-23T10:20:53.053Z,73.80
2018-07-23T10:23:24.049Z,73.40
2018-07-23T10:25:53.865Z,72.90
2018-07-23T10:28:23.591Z,72.50
2018-07-23T10:30:53.409Z,72.20
2018-07-23T10:33:22.963Z,71.80
2018-07-23T10:35:53.211Z,71.30
2018-07-23T10:38:23.393Z,70.80
2018-07-23T10:40:52.801Z,70.00
2018-07-23T10:43:22.179Z,69.60
2018-07-23T10:45:51.641Z,68.90
2018-07-23T10:48:21.134Z,68.30
2018-07-23T10:50:50.501Z,67.90
2018-07-23T10:53:19.891Z,67.70
2018-07-23T10:55:49.258Z,67.30
2018-07-23T10:58:19.260Z,67.10
2018-07-23T11:00:48.684Z,66.70
2018-07-23T11:03:18.537Z,65.80
2018-07-23T11:05:47.964Z,65.30
2018-07-23T11:08:17.440Z,65.00
2018-07-23T11:10:46.869Z,64.00
2018-07-23T11:13:17.314Z,63.20
2018-07-23T11:15:46.785Z,62.60
2018-07-23T11:18:16.135Z,62.00
2018-07-23T11:20:45.599Z,61.50
2018-07-23T11:23:15.002Z,61.20
2018-07-23T11:28:13.691Z,60.70
2018-07-23T11:30:42.997Z,59.60
2018-07-23T11:33:12.489Z,59.40
2018-07-23T11:35:41.960Z,59.30
2018-07-23T11:38:12.217Z,59.00
2018-07-23T11:40:41.679Z,58.60
2018-07-23T11:43:12.000Z,58.30
2018-07-23T11:45:41.423Z,57.90
2018-07-23T11:48:10.852Z,57.50
2018-07-23T11:50:40.259Z,57.00
2018-07-23T11:53:09.587Z,56.40
2018-07-23T11:55:39.000Z,55.90
2018-07-23T11:58:08.472Z,55.30
2018-07-23T12:00:38.588Z,54.90
2018-07-23T12:03:08.162Z,54.70
2018-07-23T12:05:37.935Z,54.70
2018-07-23T12:08:07.414Z,54.60
2018-07-23T12:10:36.931Z,54.70
2018-07-23T12:13:06.610Z,54.50
2018-07-23T12:15:35.980Z,54.40
2018-07-23T12:18:06.161Z,54.30
2018-07-23T12:23:05.003Z,54.50
2018-07-23T12:25:35.134Z,53.90
2018-07-23T12:28:04.643Z,54.30
2018-07-23T12:30:34.114Z,54.20
2018-07-23T12:33:03.537Z,54.10
2018-07-23T12:35:33.417Z,53.70
2018-07-23T12:38:02.849Z,53.30
2018-07-23T12:40:32.295Z,53.30
2018-07-23T12:43:01.767Z,52.40
2018-07-23T12:45:31.252Z,51.40
2018-07-23T12:48:00.726Z,50.60
2018-07-23T12:50:30.741Z,49.90
2018-07-23T12:53:01.038Z,49.20
2018-07-23T12:55:30.441Z,49.00
2018-07-23T12:57:59.873Z,49.00
2018-07-23T13:00:29.311Z,49.10
2018-07-23T13:02:58.805Z,49.00
2018-07-23T13:05:31.955Z,49.20
2018-07-23T13:08:03.745Z,50.40
2018-07-23T13:10:33.162Z,50.10
2018-07-23T13:13:02.597Z,49.80
2018-07-23T13:15:31.918Z,49.30
2018-07-23T13:18:01.292Z,49.00
2018-07-23T13:20:30.800Z,49.00
2018-07-23T13:23:00.166Z,48.80
2018-07-23T13:25:29.635Z,48.90
2018-07-23T13:27:59.480Z,49.10
2018-07-23T13:30:29.056Z,49.40
2018-07-23T13:32:58.536Z,49.60
2018-07-23T13:35:28.408Z,49.60
2018-07-23T13:37:57.803Z,49.70
2018-07-23T13:40:27.092Z,49.70
2018-07-23T13:42:56.522Z,49.60
2018-07-23T13:45:25.908Z,49.80
2018-07-23T13:47:55.434Z,50.10
2018-07-23T13:50:25.024Z,50.50
2018-07-23T13:52:54.475Z,50.80
2018-07-23T13:55:23.872Z,50.90
2018-07-23T13:57:53.276Z,50.90
2018-07-23T14:00:22.914Z,51.00
2018-07-23T14:02:53.036Z,50.90
2018-07-23T14:05:23.057Z,50.80
2018-07-23T14:07:52.482Z,50.70
2018-07-23T14:10:22.403Z,50.90
2018-07-23T14:12:52.964Z,50.40
2018-07-23T14:15:24.407Z,50.00
2018-07-23T14:17:54.436Z,49.60
2018-07-23T14:20:23.981Z,49.40
2018-07-23T14:22:53.362Z,49.40
2018-07-23T14:25:23.793Z,49.10
2018-07-23T14:27:53.263Z,48.50
2018-07-23T14:30:22.677Z,48.00
2018-07-23T14:32:52.139Z,47.80
2018-07-23T14:37:52.193Z,47.00
2018-07-23T14:40:22.097Z,46.30
2018-07-23T14:42:52.920Z,45.60
2018-07-23T14:45:23.201Z,44.60
2018-07-23T14:47:53.387Z,43.70
2018-07-23T14:50:23.833Z,42.80
2018-07-23T14:52:54.079Z,42.10
2018-07-23T14:55:24.966Z,41.30
2018-07-23T14:57:54.473Z,41.00
2018-07-23T15:00:23.875Z,40.30
2018-07-23T15:02:59.342Z,39.80
2018-07-23T15:05:28.683Z,39.30
2018-07-23T15:07:58.911Z,38.90
2018-07-23T15:10:28.382Z,38.60
2018-07-23T15:12:58.440Z,38.40
2018-07-23T15:15:27.802Z,38.10
2018-07-23T15:17:57.850Z,38.00
2018-07-23T15:20:27.306Z,38.00
2018-07-23T15:22:56.746Z,37.70
2018-07-23T15:25:26.199Z,37.10
2018-07-23T15:27:55.569Z,36.40
2018-07-23T15:30:25.162Z,35.80
2018-07-23T15:32:54.589Z,35.40
2018-07-23T15:37:53.057Z,35.00
2018-07-23T15:40:22.494Z,34.50
2018-07-23T15:42:52.016Z,34.20
2018-07-23T15:45:22.142Z,33.80
2018-07-23T15:47:52.223Z,33.40
2018-07-23T15:50:22.183Z,33.40
2018-07-23T15:52:51.662Z,33.30
2018-07-23T15:55:21.837Z,33.10
2018-07-23T15:57:51.165Z,32.70
2018-07-23T16:00:20.561Z,32.40
2018-07-23T16:02:49.951Z,32.20
2018-07-23T16:05:19.411Z,32.10
2018-07-23T16:07:48.673Z,31.90
2018-07-23T16:10:18.466Z,31.50
2018-07-23T16:12:47.889Z,30.90
2018-07-23T16:15:17.290Z,30.80
2018-07-23T16:17:46.708Z,30.70
2018-07-23T16:20:16.146Z,30.60
2018-07-23T16:22:45.550Z,30.70
2018-07-23T16:25:15.051Z,30.80
2018-07-23T16:27:44.454Z,30.80
2018-07-23T16:30:15.003Z,31.30
2018-07-23T16:32:44.496Z,31.20
2018-07-23T16:35:14.246Z,31.00
2018-07-23T16:37:43.691Z,30.80
2018-07-23T16:40:13.745Z,30.50
2018-07-23T16:42:43.250Z,30.50
2018-07-23T16:45:12.638Z,30.60
2018-07-23T16:47:42.147Z,30.70
2018-07-23T16:50:11.559Z,31.10
2018-07-23T16:52:41.744Z,31.40
2018-07-23T16:55:11.172Z,31.50
2018-07-23T16:57:40.550Z,31.60
2018-07-23T17:00:09.900Z,31.80
2018-07-23T17:02:39.330Z,32.20
2018-07-23T17:05:08.782Z,32.40
2018-07-23T17:07:38.186Z,32.60
2018-07-23T17:10:07.585Z,32.90
2018-07-23T17:12:37.055Z,33.20
2018-07-23T17:15:07.103Z,33.40
2018-07-23T17:17:36.594Z,33.60
2018-07-23T17:20:06.913Z,33.80
2018-07-23T17:22:37.093Z,33.90
2018-07-23T17:25:06.548Z,34.00
2018-07-23T17:27:35.977Z,34.20
2018-07-23T17:30:05.648Z,34.60
2018-07-23T17:32:35.162Z,34.90
2018-07-23T17:35:05.081Z,35.40
2018-07-23T17:40:36.300Z,36.50
2018-07-23T17:43:08.393Z,37.30
2018-07-23T17:45:37.969Z,38.00
2018-07-23T17:48:31.364Z,38.80
2018-07-23T17:51:05.328Z,39.40
2018-07-23T17:53:35.163Z,39.90
2018-07-23T17:56:05.816Z,40.40
2018-07-23T17:58:38.733Z,40.90
2018-07-23T18:01:08.829Z,41.50
2018-07-23T18:03:38.421Z,41.80
2018-07-23T18:06:11.835Z,42.20
2018-07-23T18:08:51.219Z,42.60
2018-07-23T18:11:21.813Z,43.30
2018-07-23T18:16:53.393Z,46.00
2018-07-23T18:19:22.989Z,47.20
2018-07-23T18:21:52.567Z,48.40
2018-07-23T18:24:25.878Z,49.60
2018-07-23T18:27:01.487Z,50.70
2018-07-23T18:29:31.813Z,51.80
2018-07-23T18:32:05.656Z,52.50
2018-07-23T18:34:46.920Z,53.10
2018-07-23T18:37:19.242Z,53.60
2018-07-23T18:39:53.325Z,54.00
2018-07-23T18:42:23.865Z,54.80
2018-07-23T18:44:53.996Z,55.40
2018-07-23T18:47:23.558Z,56.00
2018-07-23T18:49:59.689Z,56.60
2018-07-23T18:52:30.473Z,57.10
2018-07-23T18:55:02.414Z,57.60
2018-07-23T18:57:32.409Z,57.80
2018-07-23T19:02:32.975Z,58.40
2018-07-23T19:05:02.778Z,58.80
2018-07-23T19:07:33.257Z,59.10
2018-07-23T19:10:03.730Z,59.50
2018-07-23T19:12:34.151Z,60.60
2018-07-23T19:15:04.198Z,60.20
2018-07-23T19:17:34.655Z,60.60
2018-07-23T19:20:04.611Z,60.90
2018-07-23T19:22:40.371Z,61.40
2018-07-23T19:25:11.306Z,61.70
2018-07-23T19:43:46.124Z,61.90
2018-07-23T19:46:16.466Z,58.60
2018-07-23T19:48:46.952Z,60.30
2018-07-23T19:51:16.553Z,61.70
2018-07-23T19:53:46.747Z,62.70
2018-07-23T19:56:16.311Z,63.30
2018-07-23T19:58:46.473Z,63.60
2018-07-23T20:01:17.969Z,63.90
2018-07-23T20:03:47.542Z,64.10
2018-07-23T20:06:20.891Z,64.10
2018-07-23T20:08:56.153Z,64.30
2018-07-23T20:11:27.289Z,64.30
2018-07-23T20:13:57.422Z,64.40
2018-07-23T20:16:26.892Z,64.40
2018-07-23T20:18:56.335Z,64.40
2018-07-23T20:21:26.973Z,64.40
2018-07-23T20:24:05.985Z,64.70
2018-07-23T20:26:37.919Z,64.80
2018-07-23T20:29:09.468Z,64.90
2018-07-23T20:31:39.029Z,65.10
2018-07-23T20:34:10.083Z,66.20
2018-07-23T20:36:44.086Z,65.50
2018-07-23T20:39:14.866Z,65.60
2018-07-23T20:44:25.593Z,66.40
2018-07-23T20:46:54.986Z,66.10
2018-07-23T20:49:24.400Z,66.10
2018-07-23T20:51:54.823Z,66.40
2018-07-23T20:54:24.840Z,66.70
2018-07-23T20:56:54.267Z,66.70
2018-07-23T20:59:23.648Z,66.80
2018-07-23T21:01:53.465Z,67.00
2018-07-23T21:04:23.509Z,67.20
2018-07-23T21:06:52.938Z,67.30
2018-07-23T21:09:22.277Z,67.40
2018-07-23T21:11:54.124Z,67.50
2018-07-23T21:14:23.748Z,67.70
2018-07-23T21:16:53.160Z,67.80
2018-07-23T21:19:22.687Z,67.90
2018-07-23T21:21:52.112Z,68.00
2018-07-23T21:24:21.551Z,68.10
2018-07-23T21:26:51.491Z,68.10
2018-07-23T21:29:21.277Z,68.30
2018-07-23T21:31:52.871Z,69.20
2018-07-23T21:34:22.299Z,68.40
2018-07-23T21:36:51.887Z,68.60
2018-07-23T21:39:21.416Z,68.70
2018-07-23T21:41:55.123Z,68.70
2018-07-23T21:44:29.181Z,68.80
2018-07-23T21:46:59.029Z,68.70
2018-07-23T21:49:28.514Z,68.90
2018-07-23T21:51:58.110Z,68.90
2018-07-23T21:54:29.476Z,69.20
2018-07-23T21:56:59.402Z,69.20
2018-07-23T21:59:28.841Z,69.20
2018-07-23T22:01:58.379Z,69.30
2018-07-23T22:04:28.300Z,69.30
2018-07-23T22:06:57.720Z,69.50
2018-07-23T22:09:27.816Z,69.50
2018-07-23T22:11:57.923Z,69.60
2018-07-23T22:14:27.938Z,69.70
2018-07-23T22:16:58.014Z,69.80
2018-07-23T22:19:27.424Z,69.80
2018-07-23T22:21:56.898Z,69.80
2018-07-23T22:24:26.684Z,70.00
2018-07-23T22:26:57.333Z,70.00
2018-07-23T22:29:26.746Z,70.10
2018-07-23T22:31:56.268Z,70.10
2018-07-23T22:34:26.135Z,70.20
2018-07-23T22:36:55.645Z,70.30
2018-07-23T22:39:29.705Z,70.40
2018-07-23T22:41:59.252Z,70.40
2018-07-23T22:44:28.632Z,70.50
2018-07-23T22:46:58.216Z,70.40
2018-07-23T22:49:27.675Z,70.60
2018-07-23T22:51:57.166Z,70.60
2018-07-23T22:54:26.536Z,70.70
2018-07-23T22:56:56.105Z,70.70
2018-07-23T22:59:25.465Z,70.60
2018-07-23T23:01:54.955Z,70.80
2018-07-23T23:06:57.645Z,70.90
2018-07-23T23:11:56.133Z,70.50
2018-07-23T23:14:25.581Z,71.10
2018-07-23T23:16:55.065Z,71.20
2018-07-23T23:19:24.476Z,71.20
2018-07-23T23:21:53.949Z,71.30
2018-07-23T23:24:23.377Z,71.40
2018-07-23T23:26:53.380Z,71.50
2018-07-23T23:29:24.568Z,71.60
2018-07-23T23:31:54.076Z,71.60
2018-07-23T23:34:23.672Z,71.60
2018-07-23T23:36:53.050Z,71.60
2018-07-23T23:39:22.470Z,71.70
2018-07-23T23:41:53.214Z,71.70
2018-07-23T23:44:22.666Z,71.70
2018-07-23T23:46:52.692Z,71.70
2018-07-23T23:49:22.296Z,71.70
2018-07-23T23:51:52.330Z,71.80
2018-07-23T23:54:21.822Z,71.80
2018-07-23T23:56:51.254Z,71.90
2018-07-23T23:59:25.933Z,72.00
